createdAt,value
2022-12-23T00:01:25.474Z,98801.41
2022-12-23T00:03:58.242Z,98812.66
2022-12-23T00:06:27.325Z,98806.56
2022-12-23T00:08:58.894Z,98810.94
2022-12-23T00:11:28.898Z,98816.19
2022-12-23T00:14:20.627Z,98820.56
2022-12-23T00:16:51.367Z,98828.38
2022-12-23T00:19:21.095Z,98824.84
2022-12-23T00:21:49.710Z,98814.38
2022-12-23T00:24:17.882Z,98808.22
2022-12-23T00:26:46.251Z,98810.91
2022-12-23T00:29:14.584Z,98818.75
2022-12-23T00:31:42.871Z,98818.75
2022-12-23T00:34:12.189Z,98817.03
2022-12-23T00:36:41.745Z,98807.56
2022-12-23T00:39:30.844Z,98818.03
2022-12-23T00:42:16.508Z,98822.41
2022-12-23T00:44:44.728Z,98816.31
2022-12-23T00:47:32.879Z,98811.09
2022-12-23T00:50:00.120Z,98805.09
2022-12-23T00:52:29.591Z,98799.97
2022-12-23T00:54:57.792Z,98800.06
2022-12-23T00:57:25.968Z,98793.97
2022-12-23T00:59:54.126Z,98793.19
2022-12-23T01:02:39.619Z,98791.44
2022-12-23T01:05:26.227Z,98789.66
2022-12-23T01:07:55.882Z,98793.25
2022-12-23T01:10:24.015Z,98788.84
2022-12-23T01:12:52.504Z,98775.00
2022-12-23T01:15:20.745Z,98782.91
2022-12-23T01:17:48.876Z,98764.69
2022-12-23T01:20:17.089Z,98774.34
2022-12-23T01:22:45.213Z,98781.34
2022-12-23T01:25:14.713Z,98783.97
2022-12-23T01:27:42.798Z,98784.03
2022-12-23T01:30:11.395Z,98784.19
2022-12-23T01:32:39.826Z,98793.72
2022-12-23T01:35:08.244Z,98782.47
2022-12-23T01:37:36.380Z,98783.59
2022-12-23T01:40:04.899Z,98784.56
2022-12-23T01:42:51.863Z,98772.34
2022-12-23T01:45:24.748Z,98788.84
2022-12-23T01:47:56.386Z,98801.84
2022-12-23T01:50:28.845Z,98795.69
2022-12-23T01:53:07.235Z,98791.38
2022-12-23T01:55:39.784Z,98805.38
2022-12-23T01:58:13.361Z,98793.06
2022-12-23T02:01:00.980Z,98802.63
2022-12-23T02:03:47.021Z,98800.00
2022-12-23T02:06:38.154Z,98802.69
2022-12-23T02:09:18.762Z,98790.47
2022-12-23T02:12:06.284Z,98775.69
2022-12-23T02:15:10.427Z,98774.94
2022-12-23T02:17:45.234Z,98777.66
2022-12-23T02:20:34.133Z,98770.72
2022-12-23T02:23:31.018Z,98769.03
2022-12-23T02:26:22.999Z,98764.63
2022-12-23T02:29:12.752Z,98764.56
2022-12-23T02:31:50.452Z,98755.88
2022-12-23T02:34:22.892Z,98762.09
2022-12-23T02:37:00.503Z,98761.28
2022-12-23T02:39:38.355Z,98757.81
2022-12-23T02:42:12.106Z,98760.50
2022-12-23T02:44:42.683Z,98757.97
2022-12-23T02:47:16.367Z,98754.50
2022-12-23T02:49:50.228Z,98747.59
2022-12-23T02:52:22.027Z,98749.41
2022-12-23T02:54:53.764Z,98744.25
2022-12-23T02:57:28.161Z,98750.47
2022-12-23T03:00:00.533Z,98741.03
2022-12-23T03:02:32.337Z,98746.34
2022-12-23T03:05:01.281Z,98749.03
2022-12-23T03:07:34.548Z,98748.13
2022-12-23T03:10:09.008Z,98745.34
2022-12-23T03:12:50.063Z,98747.97
2022-12-23T03:15:30.459Z,98739.41
2022-12-23T03:18:08.034Z,98730.91
2022-12-23T03:20:43.388Z,98735.41
2022-12-23T03:23:21.377Z,98752.81
2022-12-23T03:25:59.132Z,98765.88
2022-12-23T03:28:34.590Z,98771.91
2022-12-23T03:31:05.919Z,98783.34
2022-12-23T03:33:38.800Z,98784.31
2022-12-23T03:36:11.373Z,98773.88
2022-12-23T03:38:41.965Z,98752.94
2022-12-23T03:41:14.984Z,98741.56
2022-12-23T03:43:51.157Z,98747.72
2022-12-23T03:46:24.624Z,98738.25
2022-12-23T03:48:57.495Z,98737.41
2022-12-23T03:51:31.001Z,98734.84
2022-12-23T03:54:02.803Z,98729.59
2022-12-23T03:56:35.030Z,98723.41
2022-12-23T03:59:09.544Z,98717.34
2022-12-23T04:01:58.136Z,98712.03
2022-12-23T04:04:33.395Z,98711.97
2022-12-23T04:07:07.993Z,98709.41
2022-12-23T04:09:37.307Z,98718.19
2022-12-23T04:12:06.223Z,98721.72
2022-12-23T04:14:36.534Z,98726.94
2022-12-23T04:17:04.920Z,98720.00
2022-12-23T04:19:34.501Z,98719.16
2022-12-23T04:22:02.622Z,98726.13
2022-12-23T04:24:30.924Z,98722.59
2022-12-23T04:26:59.024Z,98720.00
2022-12-23T04:29:27.212Z,98711.25
2022-12-23T04:31:55.416Z,98718.94
2022-12-23T04:34:23.603Z,98728.50
2022-12-23T04:36:53.047Z,98717.91
2022-12-23T04:39:21.208Z,98709.22
2022-12-23T04:41:49.534Z,98701.38
2022-12-23T04:44:17.813Z,98707.47
2022-12-23T04:46:46.673Z,98694.38
2022-12-23T04:49:14.829Z,98689.16
2022-12-23T04:51:42.896Z,98679.59
2022-12-23T04:54:12.450Z,98661.34
2022-12-23T04:56:40.604Z,98657.97
2022-12-23T04:59:08.753Z,98649.34
2022-12-23T05:01:36.965Z,98646.78
2022-12-23T05:04:05.586Z,98634.63
2022-12-23T05:06:33.693Z,98627.63
2022-12-23T05:09:01.875Z,98612.88
2022-12-23T05:11:31.420Z,98604.25
2022-12-23T05:13:59.969Z,98599.09
2022-12-23T05:16:28.189Z,98596.47
2022-12-23T05:18:56.413Z,98592.09
2022-12-23T05:21:24.512Z,98598.28
2022-12-23T05:23:52.754Z,98577.38
2022-12-23T05:26:20.874Z,98570.47
2022-12-23T05:28:50.356Z,98564.47
2022-12-23T05:31:18.492Z,98563.69
2022-12-23T05:33:46.764Z,98548.00
2022-12-23T05:36:14.978Z,98533.22
2022-12-23T05:38:43.134Z,98530.75
2022-12-23T05:41:11.265Z,98535.13
2022-12-23T05:43:39.482Z,98522.06
2022-12-23T05:46:08.997Z,98520.31
2022-12-23T05:48:37.213Z,98514.22
2022-12-23T05:51:05.586Z,98512.63
2022-12-23T05:53:33.881Z,98503.06
2022-12-23T05:56:05.684Z,98505.66
2022-12-23T05:58:34.175Z,98494.38
2022-12-23T06:01:03.213Z,98490.06
2022-12-23T06:03:33.188Z,98466.63
2022-12-23T06:06:01.463Z,98470.16
2022-12-23T06:08:29.757Z,98460.63
2022-12-23T06:10:59.894Z,98462.38
2022-12-23T06:13:28.204Z,98449.38
2022-12-23T06:15:56.333Z,98455.53
2022-12-23T06:18:24.528Z,98446.84
2022-12-23T06:20:53.904Z,98447.69
2022-12-23T06:23:22.103Z,98446.84
2022-12-23T06:25:50.223Z,98436.47
2022-12-23T06:28:18.435Z,98436.38
2022-12-23T06:30:46.535Z,98427.69
2022-12-23T06:33:14.729Z,98412.94
2022-12-23T06:35:44.407Z,98424.25
2022-12-23T06:38:13.965Z,98419.00
2022-12-23T06:40:42.213Z,98424.31
2022-12-23T06:43:13.403Z,98425.25
2022-12-23T06:45:41.725Z,98420.00
2022-12-23T06:48:09.853Z,98413.03
2022-12-23T06:50:38.193Z,98417.44
2022-12-23T06:53:06.363Z,98420.13
2022-12-23T06:55:36.064Z,98407.06
2022-12-23T06:58:04.206Z,98402.78
2022-12-23T07:00:32.677Z,98400.16
2022-12-23T07:03:00.991Z,98388.88
2022-12-23T07:05:36.488Z,98395.00
2022-12-23T07:08:05.544Z,98391.56
2022-12-23T07:10:36.273Z,98386.34
2022-12-23T07:13:04.396Z,98386.38
2022-12-23T07:15:32.846Z,98367.25
2022-12-23T07:18:01.003Z,98362.88
2022-12-23T07:20:29.101Z,98346.41
2022-12-23T07:22:58.038Z,98342.19
2022-12-23T07:25:26.126Z,98331.75
2022-12-23T07:27:56.376Z,98334.38
2022-12-23T07:30:25.837Z,98320.47
2022-12-23T07:32:54.542Z,98316.91
2022-12-23T07:35:22.660Z,98304.78
2022-12-23T07:37:53.735Z,98285.69
2022-12-23T07:40:22.012Z,98280.47
2022-12-23T07:42:50.998Z,98283.03
2022-12-23T07:45:20.472Z,98263.88
2022-12-23T07:47:48.693Z,98280.44
2022-12-23T07:50:17.299Z,98276.03
2022-12-23T07:52:45.445Z,98280.44
2022-12-23T07:55:13.929Z,98290.78
2022-12-23T07:57:42.508Z,98312.53
2022-12-23T08:00:12.695Z,98315.06
2022-12-23T08:02:42.770Z,98295.00
2022-12-23T08:05:11.410Z,98300.25
2022-12-23T08:07:39.869Z,98286.25
2022-12-23T08:10:09.201Z,98288.88
2022-12-23T08:12:37.413Z,98283.72
2022-12-23T08:15:06.352Z,98274.13
2022-12-23T08:17:34.495Z,98269.72
2022-12-23T08:20:04.091Z,98263.66
2022-12-23T08:22:32.672Z,98253.22
2022-12-23T08:25:00.961Z,98234.06
2022-12-23T08:27:30.044Z,98233.22
2022-12-23T08:29:58.236Z,98229.69
2022-12-23T08:32:28.230Z,98227.09
2022-12-23T08:34:57.603Z,98234.84
2022-12-23T08:37:27.302Z,98242.63
2022-12-23T08:39:55.531Z,98254.75
2022-12-23T08:42:23.659Z,98255.69
2022-12-23T08:44:51.847Z,98246.84
2022-12-23T08:47:19.978Z,98238.91
2022-12-23T08:49:49.413Z,98216.34
2022-12-23T08:52:17.602Z,98213.72
2022-12-23T08:54:47.170Z,98221.41
2022-12-23T08:57:15.405Z,98224.78
2022-12-23T08:59:43.649Z,98230.78
2022-12-23T09:02:15.107Z,98206.41
2022-12-23T09:04:43.668Z,98198.50
2022-12-23T09:07:11.900Z,98195.03
2022-12-23T09:09:40.254Z,98190.50
2022-12-23T09:12:09.872Z,98182.50
2022-12-23T09:14:38.022Z,98178.75
2022-12-23T09:17:06.203Z,98169.88
2022-12-23T09:19:34.523Z,98182.91
2022-12-23T09:22:02.674Z,98185.50
2022-12-23T09:24:31.348Z,98180.19
2022-12-23T09:26:59.463Z,98173.09
2022-12-23T09:29:28.971Z,98174.78
2022-12-23T09:31:57.119Z,98167.88
2022-12-23T09:34:26.955Z,98169.66
2022-12-23T09:36:55.757Z,98166.19
2022-12-23T09:39:24.343Z,98165.34
2022-12-23T09:42:03.102Z,98170.66
2022-12-23T09:44:50.865Z,98172.34
2022-12-23T09:47:22.929Z,98160.13
2022-12-23T09:49:53.694Z,98141.00
2022-12-23T09:52:27.562Z,98146.31
2022-12-23T09:54:56.943Z,98153.22
2022-12-23T09:57:32.566Z,98146.97
2022-12-23T10:00:12.126Z,98142.66
2022-12-23T10:02:48.924Z,98157.44
2022-12-23T10:05:26.030Z,98153.88
2022-12-23T10:07:59.771Z,98153.88
2022-12-23T10:10:31.777Z,98138.97
2022-12-23T10:13:03.340Z,98135.13
2022-12-23T10:15:38.633Z,98145.00
2022-12-23T10:18:16.231Z,98150.59
2022-12-23T10:20:52.063Z,98148.59
2022-12-23T10:23:30.591Z,98145.78
2022-12-23T10:25:58.939Z,98134.06
2022-12-23T10:28:29.695Z,98137.44
2022-12-23T10:34:01.379Z,98136.03
2022-12-23T10:36:41.259Z,98131.22
2022-12-23T10:39:21.433Z,98132.75
2022-12-23T10:42:01.496Z,98136.34
2022-12-23T10:44:55.944Z,98134.91
2022-12-23T10:47:32.111Z,98135.84
2022-12-23T10:50:16.519Z,98131.63
2022-12-23T10:52:47.335Z,98132.38
2022-12-23T10:55:28.500Z,98112.13
2022-12-23T10:58:06.944Z,98121.59
2022-12-23T11:00:38.167Z,98122.28
2022-12-23T11:03:18.970Z,98121.25
2022-12-23T11:05:47.940Z,98123.78
2022-12-23T11:08:16.592Z,98102.84
2022-12-23T11:10:45.345Z,98118.47
2022-12-23T11:13:25.225Z,98119.03
2022-12-23T11:15:53.902Z,98116.69
2022-12-23T11:18:23.440Z,98108.66
2022-12-23T11:21:05.580Z,98111.97
2022-12-23T11:23:36.813Z,98110.94
2022-12-23T11:26:07.956Z,98111.19
2022-12-23T11:28:39.397Z,98107.81
2022-12-23T11:31:12.163Z,98110.00
2022-12-23T11:33:47.347Z,98102.91
2022-12-23T11:36:23.916Z,98107.88
2022-12-23T11:38:54.880Z,98104.00
2022-12-23T11:41:26.463Z,98100.94
2022-12-23T11:43:59.631Z,98097.03
2022-12-23T11:46:29.873Z,98097.63
2022-12-23T11:49:19.402Z,98106.09
2022-12-23T11:51:50.326Z,98102.63
2022-12-23T11:54:23.394Z,98099.06
2022-12-23T11:56:54.187Z,98104.06
2022-12-23T11:59:32.719Z,98100.41
2022-12-23T12:02:03.597Z,98100.03
2022-12-23T12:04:35.661Z,98103.91
2022-12-23T12:07:06.251Z,98110.28
2022-12-23T12:09:35.748Z,98101.97
2022-12-23T12:12:08.324Z,98099.09
2022-12-23T12:14:44.192Z,98097.84
2022-12-23T12:17:19.216Z,98093.75
2022-12-23T12:20:00.284Z,98093.97
2022-12-23T12:22:36.799Z,98085.34
2022-12-23T12:25:16.854Z,98098.44
2022-12-23T12:27:49.881Z,98088.97
2022-12-23T12:30:21.663Z,98098.72
2022-12-23T12:32:57.426Z,98095.16
2022-12-23T12:35:37.809Z,98102.84
2022-12-23T12:38:17.147Z,98089.78
2022-12-23T12:40:51.122Z,98086.59
2022-12-23T12:43:27.548Z,98089.13
2022-12-23T12:46:09.833Z,98076.28
2022-12-23T12:48:46.033Z,98085.31
2022-12-23T12:51:23.654Z,98086.31
2022-12-23T12:54:05.271Z,98081.06
2022-12-23T12:56:41.617Z,98091.56
2022-12-23T12:59:17.471Z,98098.59
2022-12-23T13:01:59.160Z,98086.31
2022-12-23T13:04:47.906Z,98091.19
2022-12-23T13:07:27.930Z,98077.78
2022-12-23T13:10:04.503Z,98092.31
2022-12-23T13:12:46.122Z,98088.53
2022-12-23T13:15:23.148Z,98091.94
2022-12-23T13:18:09.030Z,98093.63
2022-12-23T13:20:44.440Z,98091.72
2022-12-23T13:23:42.361Z,98083.84
2022-12-23T13:26:19.663Z,98091.53
2022-12-23T13:28:56.104Z,98095.84
2022-12-23T13:31:35.974Z,98105.19
2022-12-23T13:34:21.011Z,98100.41
2022-12-23T13:36:58.524Z,98105.47
2022-12-23T13:39:38.141Z,98107.03
2022-12-23T13:42:11.543Z,98104.88
2022-12-23T13:44:40.322Z,98116.97
2022-12-23T13:47:16.193Z,98109.94
2022-12-23T13:49:55.092Z,98109.84
2022-12-23T13:52:36.032Z,98119.41
2022-12-23T13:55:20.124Z,98124.66
2022-12-23T13:57:57.748Z,98125.78
2022-12-23T14:00:29.302Z,98128.41
2022-12-23T14:03:20.725Z,98132.19
2022-12-23T14:05:50.738Z,98138.56
2022-12-23T14:08:26.901Z,98143.06
2022-12-23T14:11:00.051Z,98146.44
2022-12-23T14:13:31.297Z,98141.19
2022-12-23T14:16:21.804Z,98135.94
2022-12-23T14:19:06.622Z,98144.56
2022-12-23T14:21:44.516Z,98144.75
2022-12-23T14:24:45.686Z,98157.31
2022-12-23T14:27:32.587Z,98159.88
2022-12-23T14:30:11.287Z,98168.38
2022-12-23T14:32:46.807Z,98162.97
2022-12-23T14:35:23.902Z,98169.13
2022-12-23T14:38:09.730Z,98181.22
2022-12-23T14:41:00.211Z,98175.97
2022-12-23T14:43:52.768Z,98171.38
2022-12-23T14:46:55.569Z,98177.38
2022-12-23T14:49:44.050Z,98181.59
2022-12-23T14:52:44.410Z,98190.88
2022-12-23T14:55:46.969Z,98192.53
2022-12-23T14:58:40.712Z,98193.88
2022-12-23T15:01:13.227Z,98195.84
2022-12-23T15:03:46.558Z,98187.31
2022-12-23T15:06:20.357Z,98217.53
2022-12-23T15:08:50.126Z,98208.25
2022-12-23T15:11:25.882Z,98219.97
2022-12-23T15:13:58.297Z,98228.91
2022-12-23T15:16:35.366Z,98232.84
2022-12-23T15:19:17.646Z,98245.38
2022-12-23T15:21:49.140Z,98251.84
2022-12-23T15:24:22.771Z,98255.22
2022-12-23T15:27:24.576Z,98257.56
2022-12-23T15:29:48.567Z,98268.91
2022-12-23T15:32:17.831Z,98263.66
2022-12-23T15:34:48.915Z,98267.22
2022-12-23T15:37:19.752Z,98271.44
2022-12-23T15:39:55.231Z,98282.97
2022-12-23T15:42:31.368Z,98296.09
2022-12-23T15:45:00.879Z,98281.28
2022-12-23T15:47:31.733Z,98286.72
2022-12-23T15:50:00.883Z,98293.19
2022-12-23T15:52:30.812Z,98294.41
2022-12-23T15:55:03.843Z,98295.13
2022-12-23T15:57:32.662Z,98308.31
2022-12-23T16:00:02.869Z,98308.50
2022-12-23T16:03:02.299Z,98310.19
2022-12-23T16:05:33.816Z,98321.59
2022-12-23T16:08:29.004Z,98332.56
2022-12-23T16:11:04.661Z,98330.47
2022-12-23T16:13:47.281Z,98327.84
2022-12-23T16:16:19.715Z,98334.94
2022-12-23T16:18:48.241Z,98337.66
2022-12-23T16:21:17.029Z,98340.38
2022-12-23T16:23:51.102Z,98344.94
2022-12-23T16:26:20.019Z,98345.41
2022-12-23T16:28:51.755Z,98349.66
2022-12-23T16:31:21.580Z,98347.53
2022-12-23T16:33:52.511Z,98351.50
2022-12-23T16:36:23.882Z,98349.63
2022-12-23T16:38:53.820Z,98363.00
2022-12-23T16:41:22.001Z,98375.72
2022-12-23T16:43:53.171Z,98373.19
2022-12-23T16:46:23.336Z,98378.25
2022-12-23T16:48:55.864Z,98373.00
2022-12-23T16:51:25.773Z,98376.75
2022-12-23T16:53:56.583Z,98382.31
2022-12-23T16:56:28.369Z,98388.84
2022-12-23T16:58:57.943Z,98396.88
2022-12-23T17:01:28.576Z,98404.31
2022-12-23T17:03:57.022Z,98419.41
2022-12-23T17:06:26.090Z,98424.88
2022-12-23T17:08:54.896Z,98422.25
2022-12-23T17:11:26.894Z,98430.34
2022-12-23T17:13:59.769Z,98433.41
2022-12-23T17:16:33.859Z,98443.53
2022-12-23T17:19:02.153Z,98432.38
2022-12-23T17:21:34.999Z,98436.44
2022-12-23T17:24:06.214Z,98443.59
2022-12-23T17:26:34.676Z,98450.72
2022-12-23T17:29:03.761Z,98456.03
2022-12-23T17:31:34.199Z,98452.66
2022-12-23T17:34:02.732Z,98452.72
2022-12-23T17:36:31.359Z,98458.97
2022-12-23T17:38:59.609Z,98457.38
2022-12-23T17:41:30.985Z,98453.97
2022-12-23T17:43:59.833Z,98467.84
2022-12-23T17:46:28.557Z,98461.78
2022-12-23T17:48:59.290Z,98466.13
2022-12-23T17:51:28.333Z,98471.72
2022-12-23T17:53:58.299Z,98475.53
2022-12-23T17:56:29.155Z,98478.16
2022-12-23T17:58:57.323Z,98472.84
2022-12-23T18:01:27.308Z,98470.19
2022-12-23T18:03:58.308Z,98473.84
2022-12-23T18:06:28.606Z,98475.00
2022-12-23T18:08:57.927Z,98488.88
2022-12-23T18:11:32.269Z,98487.13
2022-12-23T18:14:00.908Z,98492.50
2022-12-23T18:16:29.311Z,98495.28
2022-12-23T18:18:58.937Z,98502.50
2022-12-23T18:21:29.443Z,98501.00
2022-12-23T18:24:00.842Z,98498.50
2022-12-23T18:26:29.075Z,98499.53
2022-12-23T18:28:57.181Z,98501.44
2022-12-23T18:31:27.573Z,98508.66
2022-12-23T18:33:56.030Z,98509.91
2022-12-23T18:36:27.505Z,98517.75
2022-12-23T18:38:57.259Z,98513.44
2022-12-23T18:41:27.179Z,98511.38
2022-12-23T18:43:55.958Z,98515.53
2022-12-23T18:46:24.194Z,98524.25
2022-12-23T18:48:52.652Z,98512.75
2022-12-23T18:51:22.634Z,98526.69
2022-12-23T18:53:52.249Z,98522.25
2022-12-23T18:56:21.477Z,98534.41
2022-12-23T18:58:49.671Z,98531.94
2022-12-23T19:01:19.464Z,98554.81
2022-12-23T19:03:48.044Z,98539.09
2022-12-23T19:06:17.073Z,98536.28
2022-12-23T19:08:46.533Z,98541.50
2022-12-23T19:11:18.356Z,98536.28
2022-12-23T19:13:46.983Z,98535.88
2022-12-23T19:16:16.514Z,98549.34
2022-12-23T19:18:45.394Z,98543.88
2022-12-23T19:21:13.842Z,98546.34
2022-12-23T19:23:43.055Z,98546.25
2022-12-23T19:26:13.006Z,98543.53
2022-12-23T19:28:43.005Z,98553.16
2022-12-23T19:31:13.772Z,98566.03
2022-12-23T19:33:43.548Z,98554.38
2022-12-23T19:36:12.938Z,98551.84
2022-12-23T19:38:41.689Z,98551.16
2022-12-23T19:41:10.317Z,98557.84
2022-12-23T19:43:39.841Z,98573.50
2022-12-23T19:46:10.879Z,98562.94
2022-12-23T19:48:39.416Z,98569.13
2022-12-23T19:51:10.434Z,98578.03
2022-12-23T19:53:39.236Z,98582.59
2022-12-23T19:56:11.155Z,98594.28
2022-12-23T19:58:42.306Z,98598.66
2022-12-23T20:01:14.197Z,98603.19
2022-12-23T20:03:43.665Z,98607.91
2022-12-23T20:06:15.867Z,98609.88
2022-12-23T20:08:44.810Z,98604.81
2022-12-23T20:11:15.113Z,98609.25
2022-12-23T20:13:43.534Z,98617.19
2022-12-23T20:16:13.495Z,98612.03
2022-12-23T20:18:41.917Z,98607.84
2022-12-23T20:21:10.097Z,98621.13
2022-12-23T20:23:38.472Z,98617.72
2022-12-23T20:26:06.632Z,98624.78
2022-12-23T20:28:35.229Z,98619.91
2022-12-23T20:31:09.038Z,98626.16
2022-12-23T20:33:40.432Z,98636.63
2022-12-23T20:36:09.640Z,98636.75
2022-12-23T20:38:39.792Z,98654.13
2022-12-23T20:41:08.502Z,98649.72
2022-12-23T20:43:36.641Z,98653.31
2022-12-23T20:46:06.307Z,98662.09
2022-12-23T20:48:35.326Z,98671.72
2022-12-23T20:51:08.603Z,98677.09
2022-12-23T20:53:37.069Z,98673.84
2022-12-23T20:56:07.702Z,98678.59
2022-12-23T20:58:56.069Z,98677.22
2022-12-23T21:01:26.275Z,98687.13
2022-12-23T21:03:54.775Z,98690.94
2022-12-23T21:06:24.903Z,98678.66
2022-12-23T21:08:55.774Z,98697.56
2022-12-23T21:11:24.548Z,98699.81
2022-12-23T21:13:53.066Z,98703.41
2022-12-23T21:16:21.441Z,98701.00
2022-12-23T21:18:53.297Z,98703.03
2022-12-23T21:21:23.667Z,98691.34
2022-12-23T21:23:54.491Z,98693.00
2022-12-23T21:26:25.216Z,98690.38
2022-12-23T21:28:55.513Z,98689.53
2022-12-23T21:31:24.823Z,98693.06
2022-12-23T21:33:54.114Z,98690.50
2022-12-23T21:36:24.348Z,98695.81
2022-12-23T21:38:54.246Z,98694.41
2022-12-23T21:41:24.149Z,98693.00
2022-12-23T21:43:52.954Z,98697.69
2022-12-23T21:46:23.309Z,98687.41
2022-12-23T21:48:51.614Z,98694.34
2022-12-23T21:51:22.095Z,98700.31
2022-12-23T21:53:51.693Z,98706.09
2022-12-23T21:56:24.267Z,98705.03
2022-12-23T21:58:56.640Z,98716.13
2022-12-23T22:01:25.993Z,98704.75
2022-12-23T22:03:55.063Z,98717.72
2022-12-23T22:06:25.114Z,98717.41
2022-12-23T22:08:54.792Z,98722.38
2022-12-23T22:11:26.286Z,98716.03
2022-12-23T22:13:56.613Z,98717.41
2022-12-23T22:16:26.716Z,98715.50
2022-12-23T22:18:56.113Z,98717.28
2022-12-23T22:21:26.292Z,98722.50
2022-12-23T22:23:55.943Z,98726.09
2022-12-23T22:26:28.124Z,98716.84
2022-12-23T22:28:57.363Z,98734.38
2022-12-23T22:31:32.697Z,98726.41
2022-12-23T22:34:01.111Z,98725.25
2022-12-23T22:36:29.438Z,98722.44
2022-12-23T22:39:00.283Z,98726.81
2022-12-23T22:41:31.061Z,98729.44
2022-12-23T22:44:00.235Z,98733.84
2022-12-23T22:46:29.054Z,98730.28
2022-12-23T22:48:58.947Z,98742.47
2022-12-23T22:51:29.278Z,98733.72
2022-12-23T22:53:58.252Z,98735.53
2022-12-23T22:56:27.412Z,98744.44
2022-12-23T22:58:57.115Z,98745.41
2022-12-23T23:01:27.054Z,98745.41
2022-12-23T23:03:57.876Z,98737.78
2022-12-23T23:06:26.829Z,98748.56
2022-12-23T23:08:56.325Z,98741.00
2022-12-23T23:11:25.687Z,98739.56
2022-12-23T23:13:54.324Z,98746.03
2022-12-23T23:16:25.208Z,98746.31
2022-12-23T23:18:55.011Z,98749.69
2022-12-23T23:21:23.432Z,98741.06
2022-12-23T23:23:51.766Z,98746.31
2022-12-23T23:26:20.905Z,98746.16
2022-12-23T23:28:49.656Z,98755.78
2022-12-23T23:31:41.010Z,98751.53
2022-12-23T23:34:07.315Z,98755.84
2022-12-23T23:36:35.523Z,98755.66
2022-12-23T23:39:04.008Z,98749.41
2022-12-23T23:41:32.350Z,98759.03
2022-12-23T23:44:00.531Z,98762.63
2022-12-23T23:46:30.562Z,98756.34
2022-12-23T23:48:59.110Z,98771.78
2022-12-23T23:51:28.560Z,98768.16
2022-12-23T23:53:56.804Z,98772.25
2022-12-23T23:56:26.691Z,98773.34
2022-12-23T23:58:56.357Z,98777.84
